sensor_id;sensor_type;location;lat;lon;timestamp;pressure;altitude;pressure_sealevel;temperature;humidity
70027;BME280;57506;50.092;15.804;2022-11-15T00:01:22;99339.59;;;1.25;100.00
70027;BME280;57506;50.092;15.804;2022-11-15T00:03:51;99337.06;;;1.24;100.00
70027;BME280;57506;50.092;15.804;2022-11-15T00:06:16;99332.81;;;1.12;100.00
70027;BME280;57506;50.092;15.804;2022-11-15T00:08:42;99335.63;;;1.20;100.00
70027;BME280;57506;50.092;15.804;2022-11-15T00:11:10;99323.06;;;1.22;100.00
70027;BME280;57506;50.092;15.804;2022-11-15T00:13:36;99329.00;;;1.35;100.00
70027;BME280;57506;50.092;15.804;2022-11-15T00:16:02;99324.50;;;1.26;100.00
70027;BME280;57506;50.092;15.804;2022-11-15T00:18:28;99330.69;;;1.36;100.00
70027;BME280;57506;50.092;15.804;2022-11-15T00:20:55;99329.00;;;1.35;100.00
70027;BME280;57506;50.092;15.804;2022-11-15T00:23:21;99318.13;;;1.38;100.00
70027;BME280;57506;50.092;15.804;2022-11-15T00:25:46;99314.16;;;1.32;100.00
70027;BME280;57506;50.092;15.804;2022-11-15T00:28:12;99322.22;;;1.52;100.00
70027;BME280;57506;50.092;15.804;2022-11-15T00:30:37;99323.16;;;1.41;100.00
70027;BME280;57506;50.092;15.804;2022-11-15T00:33:04;99305.91;;;1.26;100.00
70027;BME280;57506;50.092;15.804;2022-11-15T00:35:34;99311.56;;;1.42;100.00
70027;BME280;57506;50.092;15.804;2022-11-15T00:38:00;99291.84;;;1.14;100.00
70027;BME280;57506;50.092;15.804;2022-11-15T00:40:25;99317.88;;;1.20;100.00
70027;BME280;57506;50.092;15.804;2022-11-15T00:42:51;99321.06;;;1.14;100.00
70027;BME280;57506;50.092;15.804;2022-11-15T00:45:17;99322.94;;;1.02;100.00
70027;BME280;57506;50.092;15.804;2022-11-15T00:47:45;99332.41;;;0.95;100.00
70027;BME280;57506;50.092;15.804;2022-11-15T00:50:12;99312.50;;;0.80;100.00
70027;BME280;57506;50.092;15.804;2022-11-15T00:52:37;99302.19;;;0.87;100.00
70027;BME280;57506;50.092;15.804;2022-11-15T00:55:03;99318.22;;;0.85;100.00
70027;BME280;57506;50.092;15.804;2022-11-15T00:57:29;99312.41;;;0.70;100.00
70027;BME280;57506;50.092;15.804;2022-11-15T00:59:54;99308.47;;;0.65;100.00
70027;BME280;57506;50.092;15.804;2022-11-15T01:02:20;99316.16;;;0.68;100.00
70027;BME280;57506;50.092;15.804;2022-11-15T01:04:45;99315.00;;;0.61;100.00
70027;BME280;57506;50.092;15.804;2022-11-15T01:07:11;99302.00;;;0.58;100.00
70027;BME280;57506;50.092;15.804;2022-11-15T01:09:36;99302.56;;;0.61;100.00
70027;BME280;57506;50.092;15.804;2022-11-15T01:12:02;99301.16;;;0.57;100.00
70027;BME280;57506;50.092;15.804;2022-11-15T01:14:28;99309.09;;;0.57;100.00
70027;BME280;57506;50.092;15.804;2022-11-15T01:16:53;99289.34;;;0.29;100.00
70027;BME280;57506;50.092;15.804;2022-11-15T01:19:19;99304.00;;;0.33;100.00
70027;BME280;57506;50.092;15.804;2022-11-15T01:21:44;99294.84;;;0.38;100.00
70027;BME280;57506;50.092;15.804;2022-11-15T01:24:13;99287.09;;;0.46;100.00
70027;BME280;57506;50.092;15.804;2022-11-15T01:26:39;99295.84;;;0.57;100.00
70027;BME280;57506;50.092;15.804;2022-11-15T01:29:05;99280.31;;;0.53;100.00
70027;BME280;57506;50.092;15.804;2022-11-15T01:31:30;99276.38;;;0.68;100.00
70027;BME280;57506;50.092;15.804;2022-11-15T01:33:56;99284.41;;;0.78;100.00
70027;BME280;57506;50.092;15.804;2022-11-15T01:36:21;99281.34;;;0.82;100.00
70027;BME280;57506;50.092;15.804;2022-11-15T01:38:53;99281.28;;;0.93;100.00
70027;BME280;57506;50.092;15.804;2022-11-15T01:41:22;99276.88;;;1.03;100.00
70027;BME280;57506;50.092;15.804;2022-11-15T01:44:38;99270.56;;;0.74;100.00
70027;BME280;57506;50.092;15.804;2022-11-15T01:46:37;99270.31;;;0.77;100.00
70027;BME280;57506;50.092;15.804;2022-11-15T01:49:13;99271.47;;;0.63;100.00
70027;BME280;57506;50.092;15.804;2022-11-15T01:51:40;99273.91;;;0.55;100.00
70027;BME280;57506;50.092;15.804;2022-11-15T01:54:09;99267.84;;;0.64;100.00
70027;BME280;57506;50.092;15.804;2022-11-15T01:56:40;99271.63;;;0.51;100.00
70027;BME280;57506;50.092;15.804;2022-11-15T01:59:08;99265.88;;;0.66;100.00
70027;BME280;57506;50.092;15.804;2022-11-15T02:01:34;99250.31;;;0.73;100.00
70027;BME280;57506;50.092;15.804;2022-11-15T02:04:25;99238.50;;;0.87;100.00
70027;BME280;57506;50.092;15.804;2022-11-15T02:06:52;99253.78;;;0.94;100.00
70027;BME280;57506;50.092;15.804;2022-11-15T02:09:17;99242.13;;;0.86;100.00
70027;BME280;57506;50.092;15.804;2022-11-15T02:11:43;99233.59;;;0.82;100.00
70027;BME280;57506;50.092;15.804;2022-11-15T02:14:11;99245.25;;;0.91;100.00
70027;BME280;57506;50.092;15.804;2022-11-15T02:19:47;99239.31;;;0.78;100.00
70027;BME280;57506;50.092;15.804;2022-11-15T02:25:27;99245.97;;;0.72;100.00
70027;BME280;57506;50.092;15.804;2022-11-15T02:33:56;99233.25;;;0.45;100.00
70027;BME280;57506;50.092;15.804;2022-11-15T02:37:27;99240.22;;;0.46;100.00
70027;BME280;57506;50.092;15.804;2022-11-15T02:42:19;99222.25;;;0.29;100.00
70027;BME280;57506;50.092;15.804;2022-11-15T02:45:07;99208.91;;;0.19;100.00
70027;BME280;57506;50.092;15.804;2022-11-15T02:47:42;99217.56;;;0.21;100.00
70027;BME280;57506;50.092;15.804;2022-11-15T02:50:10;99222.44;;;0.16;100.00
70027;BME280;57506;50.092;15.804;2022-11-15T02:52:37;99208.50;;;0.03;100.00
70027;BME280;57506;50.092;15.804;2022-11-15T02:55:03;99222.34;;;0.07;100.00
70027;BME280;57506;50.092;15.804;2022-11-15T02:57:39;99225.81;;;0.07;100.00
70027;BME280;57506;50.092;15.804;2022-11-15T03:00:17;99224.03;;;0.08;100.00
70027;BME280;57506;50.092;15.804;2022-11-15T03:08:17;99196.69;;;0.07;100.00
70027;BME280;57506;50.092;15.804;2022-11-15T03:13:30;99206.38;;;0.18;100.00
70027;BME280;57506;50.092;15.804;2022-11-15T03:16:38;99173.81;;;0.06;100.00
70027;BME280;57506;50.092;15.804;2022-11-15T03:21:37;99198.97;;;0.32;100.00
70027;BME280;57506;50.092;15.804;2022-11-15T03:24:06;99183.50;;;0.38;100.00
70027;BME280;57506;50.092;15.804;2022-11-15T03:26:34;99170.50;;;0.34;100.00
70027;BME280;57506;50.092;15.804;2022-11-15T03:29:27;99173.63;;;0.40;100.00
70027;BME280;57506;50.092;15.804;2022-11-15T03:31:58;99166.00;;;0.46;100.00
70027;BME280;57506;50.092;15.804;2022-11-15T03:34:34;99164.91;;;0.49;100.00
70027;BME280;57506;50.092;15.804;2022-11-15T03:37:02;99164.19;;;0.47;100.00
70027;BME280;57506;50.092;15.804;2022-11-15T03:39:29;99159.97;;;0.23;100.00
70027;BME280;57506;50.092;15.804;2022-11-15T03:50:29;99184.88;;;0.11;100.00
70027;BME280;57506;50.092;15.804;2022-11-15T03:52:55;99184.63;;;0.14;100.00
70027;BME280;57506;50.092;15.804;2022-11-15T03:55:22;99168.03;;;0.01;100.00
70027;BME280;57506;50.092;15.804;2022-11-15T03:57:50;99181.63;;;0.08;100.00
70027;BME280;57506;50.092;15.804;2022-11-15T04:00:16;99190.88;;;0.13;100.00
70027;BME280;57506;50.092;15.804;2022-11-15T04:02:42;99174.34;;;0.00;100.00
70027;BME280;57506;50.092;15.804;2022-11-15T04:05:07;99187.78;;;0.08;100.00
70027;BME280;57506;50.092;15.804;2022-11-15T04:07:33;99182.84;;;0.04;100.00
70027;BME280;57506;50.092;15.804;2022-11-15T04:09:58;99171.28;;;-0.16;100.00
70027;BME280;57506;50.092;15.804;2022-11-15T04:12:38;99184.66;;;-0.18;100.00
70027;BME280;57506;50.092;15.804;2022-11-15T04:15:07;99180.25;;;-0.08;100.00
70027;BME280;57506;50.092;15.804;2022-11-15T04:18:05;99178.91;;;-0.02;100.00
70027;BME280;57506;50.092;15.804;2022-11-15T04:20:31;99172.78;;;-0.03;100.00
70027;BME280;57506;50.092;15.804;2022-11-15T04:23:20;99142.84;;;-0.14;100.00
70027;BME280;57506;50.092;15.804;2022-11-15T04:26:17;99175.81;;;-0.07;100.00
70027;BME280;57506;50.092;15.804;2022-11-15T04:28:43;99162.50;;;-0.17;100.00
70027;BME280;57506;50.092;15.804;2022-11-15T04:31:27;99140.97;;;-0.23;100.00
70027;BME280;57506;50.092;15.804;2022-11-15T04:33:53;99166.53;;;-0.13;100.00
70027;BME280;57506;50.092;15.804;2022-11-15T04:36:19;99160.38;;;-0.02;100.00
70027;BME280;57506;50.092;15.804;2022-11-15T04:39:03;99156.34;;;0.04;100.00
70027;BME280;57506;50.092;15.804;2022-11-15T04:41:29;99156.44;;;0.13;100.00
70027;BME280;57506;50.092;15.804;2022-11-15T04:43:55;99148.75;;;0.10;100.00
70027;BME280;57506;50.092;15.804;2022-11-15T04:46:21;99162.16;;;0.18;100.00
70027;BME280;57506;50.092;15.804;2022-11-15T04:48:47;99157.28;;;0.14;100.00
70027;BME280;57506;50.092;15.804;2022-11-15T04:51:13;99162.50;;;0.04;100.00
70027;BME280;57506;50.092;15.804;2022-11-15T04:53:38;99154.34;;;-0.04;100.00
70027;BME280;57506;50.092;15.804;2022-11-15T04:56:04;99170.19;;;0.07;100.00
70027;BME280;57506;50.092;15.804;2022-11-15T04:58:29;99165.28;;;-0.29;100.00
70027;BME280;57506;50.092;15.804;2022-11-15T05:00:55;99176.84;;;-0.30;100.00
70027;BME280;57506;50.092;15.804;2022-11-15T05:03:20;99170.81;;;-0.21;100.00
70027;BME280;57506;50.092;15.804;2022-11-15T05:06:05;99169.59;;;-0.17;100.00
70027;BME280;57506;50.092;15.804;2022-11-15T05:08:31;99156.78;;;-0.12;100.00
70027;BME280;57506;50.092;15.804;2022-11-15T05:10:57;99129.53;;;-0.24;100.00
70027;BME280;57506;50.092;15.804;2022-11-15T05:13:23;99152.16;;;0.01;100.00
70027;BME280;57506;50.092;15.804;2022-11-15T05:15:48;99133.59;;;0.01;100.00
70027;BME280;57506;50.092;15.804;2022-11-15T05:18:13;99150.44;;;0.11;100.00
70027;BME280;57506;50.092;15.804;2022-11-15T05:20:39;99145.31;;;0.19;100.00
70027;BME280;57506;50.092;15.804;2022-11-15T05:23:05;99147.97;;;0.19;100.00
70027;BME280;57506;50.092;15.804;2022-11-15T05:25:30;99156.63;;;0.21;100.00
70027;BME280;57506;50.092;15.804;2022-11-15T05:27:56;99147.41;;;0.16;100.00
70027;BME280;57506;50.092;15.804;2022-11-15T05:30:22;99156.88;;;0.18;100.00
70027;BME280;57506;50.092;15.804;2022-11-15T05:32:47;99139.69;;;0.13;100.00
70027;BME280;57506;50.092;15.804;2022-11-15T05:35:29;99141.69;;;0.20;100.00
70027;BME280;57506;50.092;15.804;2022-11-15T05:37:56;99099.75;;;0.05;100.00
70027;BME280;57506;50.092;15.804;2022-11-15T05:40:23;99119.47;;;0.12;100.00
70027;BME280;57506;50.092;15.804;2022-11-15T05:42:49;99130.19;;;0.10;100.00
70027;BME280;57506;50.092;15.804;2022-11-15T05:45:15;99124.25;;;-0.03;100.00
70027;BME280;57506;50.092;15.804;2022-11-15T05:47:41;99123.66;;;-0.07;100.00
70027;BME280;57506;50.092;15.804;2022-11-15T05:50:08;99147.44;;;0.05;100.00
70027;BME280;57506;50.092;15.804;2022-11-15T05:52:36;99106.47;;;-0.12;100.00
70027;BME280;57506;50.092;15.804;2022-11-15T05:55:05;99128.97;;;0.14;100.00
70027;BME280;57506;50.092;15.804;2022-11-15T05:57:32;99119.97;;;0.06;100.00
70027;BME280;57506;50.092;15.804;2022-11-15T05:59:58;99137.09;;;0.22;100.00
70027;BME280;57506;50.092;15.804;2022-11-15T06:02:23;99126.44;;;0.13;100.00
70027;BME280;57506;50.092;15.804;2022-11-15T06:04:49;99138.53;;;0.26;100.00
70027;BME280;57506;50.092;15.804;2022-11-15T06:07:14;99154.59;;;0.34;100.00
70027;BME280;57506;50.092;15.804;2022-11-15T06:09:40;99135.63;;;0.29;100.00
70027;BME280;57506;50.092;15.804;2022-11-15T06:12:05;99132.25;;;0.27;100.00
70027;BME280;57506;50.092;15.804;2022-11-15T06:14:31;99151.31;;;0.42;100.00
70027;BME280;57506;50.092;15.804;2022-11-15T06:16:57;99129.19;;;0.53;100.00
70027;BME280;57506;50.092;15.804;2022-11-15T06:19:22;99107.22;;;0.41;100.00
70027;BME280;57506;50.092;15.804;2022-11-15T06:21:47;99116.19;;;0.50;100.00
70027;BME280;57506;50.092;15.804;2022-11-15T06:24:13;99116.88;;;0.52;100.00
70027;BME280;57506;50.092;15.804;2022-11-15T06:26:38;99136.97;;;0.75;100.00
70027;BME280;57506;50.092;15.804;2022-11-15T06:29:04;99128.69;;;0.68;100.00
70027;BME280;57506;50.092;15.804;2022-11-15T06:31:30;99133.97;;;0.59;100.00
70027;BME280;57506;50.092;15.804;2022-11-15T06:33:56;99139.78;;;0.53;100.00
70027;BME280;57506;50.092;15.804;2022-11-15T06:36:21;99159.59;;;0.49;100.00
70027;BME280;57506;50.092;15.804;2022-11-15T06:38:47;99156.41;;;0.55;100.00
70027;BME280;57506;50.092;15.804;2022-11-15T06:41:14;99162.63;;;0.65;100.00
70027;BME280;57506;50.092;15.804;2022-11-15T06:43:40;99157.88;;;0.68;100.00
70027;BME280;57506;50.092;15.804;2022-11-15T06:46:06;99167.38;;;0.71;100.00
70027;BME280;57506;50.092;15.804;2022-11-15T06:48:32;99164.97;;;0.68;100.00
70027;BME280;57506;50.092;15.804;2022-11-15T06:51:00;99178.94;;;0.70;100.00
70027;BME280;57506;50.092;15.804;2022-11-15T06:53:26;99174.00;;;0.56;100.00
70027;BME280;57506;50.092;15.804;2022-11-15T06:55:52;99178.16;;;0.49;100.00
70027;BME280;57506;50.092;15.804;2022-11-15T06:58:18;99150.72;;;0.39;100.00
70027;BME280;57506;50.092;15.804;2022-11-15T07:00:44;99157.00;;;0.38;100.00
70027;BME280;57506;50.092;15.804;2022-11-15T07:03:10;99178.84;;;0.51;100.00
70027;BME280;57506;50.092;15.804;2022-11-15T07:05:35;99161.47;;;0.37;100.00
70027;BME280;57506;50.092;15.804;2022-11-15T07:08:01;99175.22;;;0.52;100.00
70027;BME280;57506;50.092;15.804;2022-11-15T07:10:27;99157.63;;;0.51;100.00
70027;BME280;57506;50.092;15.804;2022-11-15T07:12:54;99164.47;;;0.53;100.00
70027;BME280;57506;50.092;15.804;2022-11-15T07:15:23;99171.00;;;0.70;100.00
70027;BME280;57506;50.092;15.804;2022-11-15T07:17:48;99162.19;;;0.69;100.00
70027;BME280;57506;50.092;15.804;2022-11-15T07:20:14;99170.84;;;0.92;100.00
70027;BME280;57506;50.092;15.804;2022-11-15T07:22:40;99176.59;;;0.97;100.00
70027;BME280;57506;50.092;15.804;2022-11-15T07:25:07;99157.31;;;0.95;100.00
70027;BME280;57506;50.092;15.804;2022-11-15T07:27:32;99163.72;;;1.02;100.00
70027;BME280;57506;50.092;15.804;2022-11-15T07:29:58;99159.28;;;1.03;100.00
70027;BME280;57506;50.092;15.804;2022-11-15T07:32:24;99173.19;;;1.26;100.00
70027;BME280;57506;50.092;15.804;2022-11-15T07:34:50;99160.47;;;1.29;100.00
70027;BME280;57506;50.092;15.804;2022-11-15T07:37:15;99151.81;;;1.37;100.00
70027;BME280;57506;50.092;15.804;2022-11-15T07:39:42;99161.38;;;1.68;100.00
70027;BME280;57506;50.092;15.804;2022-11-15T07:42:08;99158.19;;;1.74;100.00
70027;BME280;57506;50.092;15.804;2022-11-15T07:44:52;99150.31;;;1.63;100.00
70027;BME280;57506;50.092;15.804;2022-11-15T07:47:17;99153.97;;;1.62;100.00
70027;BME280;57506;50.092;15.804;2022-11-15T07:49:43;99155.53;;;1.74;100.00
70027;BME280;57506;50.092;15.804;2022-11-15T07:52:08;99143.34;;;1.72;100.00
70027;BME280;57506;50.092;15.804;2022-11-15T07:54:34;99173.56;;;2.09;100.00
70027;BME280;57506;50.092;15.804;2022-11-15T07:56:59;99149.91;;;2.16;100.00
70027;BME280;57506;50.092;15.804;2022-11-15T07:59:25;99151.03;;;2.23;100.00
70027;BME280;57506;50.092;15.804;2022-11-15T08:01:50;99142.88;;;2.34;100.00
70027;BME280;57506;50.092;15.804;2022-11-15T08:04:16;99142.31;;;2.40;100.00
70027;BME280;57506;50.092;15.804;2022-11-15T08:06:41;99138.59;;;2.61;100.00
70027;BME280;57506;50.092;15.804;2022-11-15T08:09:07;99155.41;;;2.61;100.00
70027;BME280;57506;50.092;15.804;2022-11-15T08:11:32;99141.13;;;2.62;100.00
70027;BME280;57506;50.092;15.804;2022-11-15T08:13:58;99137.66;;;2.52;100.00
70027;BME280;57506;50.092;15.804;2022-11-15T08:16:24;99131.72;;;2.68;100.00
70027;BME280;57506;50.092;15.804;2022-11-15T08:18:49;99110.72;;;2.65;100.00
70027;BME280;57506;50.092;15.804;2022-11-15T08:21:18;99135.75;;;2.81;100.00
70027;BME280;57506;50.092;15.804;2022-11-15T08:23:44;99139.94;;;2.84;100.00
70027;BME280;57506;50.092;15.804;2022-11-15T08:26:10;99140.47;;;2.88;100.00
70027;BME280;57506;50.092;15.804;2022-11-15T08:28:35;99117.16;;;2.72;100.00
70027;BME280;57506;50.092;15.804;2022-11-15T08:31:02;99137.88;;;3.05;100.00
70027;BME280;57506;50.092;15.804;2022-11-15T08:33:28;99138.38;;;3.19;100.00
70027;BME280;57506;50.092;15.804;2022-11-15T08:35:59;99120.19;;;3.14;100.00
70027;BME280;57506;50.092;15.804;2022-11-15T08:38:26;99133.97;;;3.27;100.00
70027;BME280;57506;50.092;15.804;2022-11-15T08:41:02;99108.00;;;3.39;100.00
70027;BME280;57506;50.092;15.804;2022-11-15T08:43:29;99135.56;;;3.83;100.00
70027;BME280;57506;50.092;15.804;2022-11-15T08:45:57;99126.63;;;3.92;100.00
70027;BME280;57506;50.092;15.804;2022-11-15T08:48:23;99132.06;;;3.82;100.00
70027;BME280;57506;50.092;15.804;2022-11-15T08:50:53;99125.44;;;3.86;100.00
70027;BME280;57506;50.092;15.804;2022-11-15T08:53:19;99116.66;;;3.94;100.00
70027;BME280;57506;50.092;15.804;2022-11-15T08:55:45;99123.22;;;4.00;100.00
70027;BME280;57506;50.092;15.804;2022-11-15T08:58:10;99121.78;;;4.05;100.00
70027;BME280;57506;50.092;15.804;2022-11-15T09:00:36;99101.06;;;4.25;100.00
70027;BME280;57506;50.092;15.804;2022-11-15T09:03:05;99117.44;;;4.82;100.00
70027;BME280;57506;50.092;15.804;2022-11-15T09:05:31;99109.00;;;4.95;100.00
70027;BME280;57506;50.092;15.804;2022-11-15T09:07:57;99110.59;;;4.87;100.00
70027;BME280;57506;50.092;15.804;2022-11-15T09:10:23;99121.44;;;5.20;100.00
70027;BME280;57506;50.092;15.804;2022-11-15T09:12:49;99120.44;;;5.21;100.00
70027;BME280;57506;50.092;15.804;2022-11-15T09:15:15;99112.78;;;5.18;100.00
70027;BME280;57506;50.092;15.804;2022-11-15T09:17:41;99123.31;;;5.27;100.00
70027;BME280;57506;50.092;15.804;2022-11-15T09:20:08;99147.66;;;5.24;100.00
70027;BME280;57506;50.092;15.804;2022-11-15T09:22:34;99119.00;;;5.43;100.00
70027;BME280;57506;50.092;15.804;2022-11-15T09:24:59;99118.00;;;5.44;100.00
70027;BME280;57506;50.092;15.804;2022-11-15T09:27:29;99125.22;;;5.59;100.00
70027;BME280;57506;50.092;15.804;2022-11-15T09:29:55;99126.25;;;5.67;100.00
70027;BME280;57506;50.092;15.804;2022-11-15T09:32:20;99119.91;;;5.76;100.00
70027;BME280;57506;50.092;15.804;2022-11-15T09:34:48;99119.75;;;5.77;100.00
70027;BME280;57506;50.092;15.804;2022-11-15T09:37:14;99127.16;;;5.91;100.00
70027;BME280;57506;50.092;15.804;2022-11-15T09:39:39;99114.41;;;5.85;100.00
70027;BME280;57506;50.092;15.804;2022-11-15T09:42:20;99134.88;;;6.11;100.00
70027;BME280;57506;50.092;15.804;2022-11-15T09:50:18;99112.59;;;6.18;100.00
70027;BME280;57506;50.092;15.804;2022-11-15T09:52:46;99128.50;;;6.28;100.00
70027;BME280;57506;50.092;15.804;2022-11-15T09:55:12;99113.44;;;6.27;100.00
70027;BME280;57506;50.092;15.804;2022-11-15T09:57:52;99122.97;;;6.46;100.00
70027;BME280;57506;50.092;15.804;2022-11-15T10:00:33;99126.78;;;6.51;100.00
70027;BME280;57506;50.092;15.804;2022-11-15T10:03:30;99116.56;;;6.71;100.00
70027;BME280;57506;50.092;15.804;2022-11-15T10:06:04;99113.31;;;6.92;100.00
70027;BME280;57506;50.092;15.804;2022-11-15T10:11:22;99112.59;;;7.14;100.00
70027;BME280;57506;50.092;15.804;2022-11-15T10:13:50;99092.09;;;7.21;100.00
70027;BME280;57506;50.092;15.804;2022-11-15T10:19:23;99113.97;;;7.64;100.00
70027;BME280;57506;50.092;15.804;2022-11-15T10:24:24;99102.69;;;7.77;100.00
70027;BME280;57506;50.092;15.804;2022-11-15T10:26:50;99098.34;;;7.76;100.00
70027;BME280;57506;50.092;15.804;2022-11-15T10:29:20;99095.81;;;7.74;100.00
70027;BME280;57506;50.092;15.804;2022-11-15T10:31:46;99069.53;;;7.69;100.00
70027;BME280;57506;50.092;15.804;2022-11-15T10:34:14;99088.25;;;7.78;100.00
70027;BME280;57506;50.092;15.804;2022-11-15T10:37:00;99083.34;;;7.81;100.00
70027;BME280;57506;50.092;15.804;2022-11-15T10:39:28;99087.03;;;7.80;100.00
70027;BME280;57506;50.092;15.804;2022-11-15T10:41:54;99083.13;;;7.68;100.00
70027;BME280;57506;50.092;15.804;2022-11-15T10:44:23;99086.69;;;7.83;100.00
70027;BME280;57506;50.092;15.804;2022-11-15T10:49:28;99072.13;;;8.23;100.00
70027;BME280;57506;50.092;15.804;2022-11-15T10:52:01;99074.91;;;8.30;100.00
70027;BME280;57506;50.092;15.804;2022-11-15T10:54:48;99067.84;;;8.52;100.00
70027;BME280;57506;50.092;15.804;2022-11-15T10:57:20;99064.63;;;8.71;100.00
70027;BME280;57506;50.092;15.804;2022-11-15T10:59:51;99066.84;;;8.67;100.00
70027;BME280;57506;50.092;15.804;2022-11-15T11:02:38;99055.78;;;8.62;100.00
70027;BME280;57506;50.092;15.804;2022-11-15T11:05:26;99036.72;;;8.43;100.00
70027;BME280;57506;50.092;15.804;2022-11-15T11:08:04;99060.97;;;8.49;100.00
70027;BME280;57506;50.092;15.804;2022-11-15T11:10:30;99041.09;;;8.58;100.00
70027;BME280;57506;50.092;15.804;2022-11-15T11:13:12;99054.53;;;8.73;100.00
70027;BME280;57506;50.092;15.804;2022-11-15T11:15:39;99046.00;;;8.69;100.00
70027;BME280;57506;50.092;15.804;2022-11-15T11:18:18;99040.16;;;8.66;100.00
70027;BME280;57506;50.092;15.804;2022-11-15T11:21:11;99053.56;;;8.81;100.00
70027;BME280;57506;50.092;15.804;2022-11-15T11:35:43;99019.84;;;9.29;100.00
70027;BME280;57506;50.092;15.804;2022-11-15T11:49:10;98983.56;;;8.53;100.00
70027;BME280;57506;50.092;15.804;2022-11-15T11:54:39;98971.06;;;8.45;100.00
70027;BME280;57506;50.092;15.804;2022-11-15T11:57:35;98972.53;;;8.33;100.00
70027;BME280;57506;50.092;15.804;2022-11-15T12:00:22;98975.88;;;8.35;100.00
70027;BME280;57506;50.092;15.804;2022-11-15T12:05:47;98959.84;;;8.27;100.00
70027;BME280;57506;50.092;15.804;2022-11-15T12:08:40;98965.06;;;8.43;100.00
70027;BME280;57506;50.092;15.804;2022-11-15T12:11:15;98957.06;;;8.50;100.00
70027;BME280;57506;50.092;15.804;2022-11-15T12:13:43;98965.69;;;8.60;100.00
70027;BME280;57506;50.092;15.804;2022-11-15T12:16:20;98944.75;;;8.55;100.00
70027;BME280;57506;50.092;15.804;2022-11-15T12:18:50;98957.88;;;8.65;100.00
70027;BME280;57506;50.092;15.804;2022-11-15T12:22:02;98950.31;;;8.54;100.00
70027;BME280;57506;50.092;15.804;2022-11-15T12:24:49;98940.69;;;8.45;100.00
70027;BME280;57506;50.092;15.804;2022-11-15T12:27:37;98926.06;;;8.32;100.00
70027;BME280;57506;50.092;15.804;2022-11-15T12:30:12;98923.19;;;8.34;100.00
70027;BME280;57506;50.092;15.804;2022-11-15T12:32:41;98918.56;;;8.28;100.00
70027;BME280;57506;50.092;15.804;2022-11-15T12:35:35;98890.31;;;8.17;100.00
70027;BME280;57506;50.092;15.804;2022-11-15T12:38:02;98896.53;;;8.32;100.00
70027;BME280;57506;50.092;15.804;2022-11-15T12:40:34;98910.78;;;8.48;100.00
70027;BME280;57506;50.092;15.804;2022-11-15T12:43:03;98897.81;;;8.51;100.00
70027;BME280;57506;50.092;15.804;2022-11-15T13:07:03;98859.69;;;8.41;100.00
70027;BME280;57506;50.092;15.804;2022-11-15T13:11:58;98855.16;;;8.41;100.00
70027;BME280;57506;50.092;15.804;2022-11-15T13:14:56;98865.06;;;8.41;100.00
70027;BME280;57506;50.092;15.804;2022-11-15T13:17:23;98859.69;;;8.41;100.00
70027;BME280;57506;50.092;15.804;2022-11-15T13:20:08;98855.97;;;8.42;100.00
70027;BME280;57506;50.092;15.804;2022-11-15T13:27:56;98843.81;;;8.46;100.00
70027;BME280;57506;50.092;15.804;2022-11-15T13:30:29;98841.91;;;8.40;100.00
70027;BME280;57506;50.092;15.804;2022-11-15T13:32:55;98836.06;;;8.36;100.00
70027;BME280;57506;50.092;15.804;2022-11-15T13:35:23;98850.53;;;8.35;100.00
70027;BME280;57506;50.092;15.804;2022-11-15T13:37:50;98847.47;;;8.38;100.00
70027;BME280;57506;50.092;15.804;2022-11-15T13:40:28;98839.69;;;8.44;100.00
70027;BME280;57506;50.092;15.804;2022-11-15T13:42:56;98838.84;;;8.43;100.00
70027;BME280;57506;50.092;15.804;2022-11-15T13:45:23;98826.16;;;8.37;100.00
70027;BME280;57506;50.092;15.804;2022-11-15T13:47:57;98803.13;;;8.28;100.00
70027;BME280;57506;50.092;15.804;2022-11-15T13:50:32;98794.13;;;8.35;100.00
70027;BME280;57506;50.092;15.804;2022-11-15T13:53:00;98826.78;;;8.54;100.00
70027;BME280;57506;50.092;15.804;2022-11-15T13:55:29;98813.44;;;8.46;100.00
70027;BME280;57506;50.092;15.804;2022-11-15T13:58:00;98821.97;;;8.49;100.00
70027;BME280;57506;50.092;15.804;2022-11-15T14:00:41;98823.81;;;8.49;100.00
70027;BME280;57506;50.092;15.804;2022-11-15T14:06:11;98817.66;;;8.33;100.00
70027;BME280;57506;50.092;15.804;2022-11-15T14:11:22;98804.69;;;8.22;100.00
70027;BME280;57506;50.092;15.804;2022-11-15T14:19:04;98807.44;;;8.29;100.00
70027;BME280;57506;50.092;15.804;2022-11-15T14:21:30;98792.19;;;8.15;100.00
70027;BME280;57506;50.092;15.804;2022-11-15T14:24:19;98808.50;;;8.13;100.00
70027;BME280;57506;50.092;15.804;2022-11-15T14:26:46;98796.91;;;8.13;100.00
70027;BME280;57506;50.092;15.804;2022-11-15T14:29:25;98777.72;;;7.94;100.00
70027;BME280;57506;50.092;15.804;2022-11-15T14:32:05;98780.09;;;8.04;100.00
70027;BME280;57506;50.092;15.804;2022-11-15T14:34:37;98781.22;;;8.10;100.00
70027;BME280;57506;50.092;15.804;2022-11-15T14:37:02;98775.91;;;8.16;100.00
70027;BME280;57506;50.092;15.804;2022-11-15T14:39:28;98775.34;;;8.21;100.00
70027;BME280;57506;50.092;15.804;2022-11-15T14:41:53;98762.69;;;8.15;100.00
70027;BME280;57506;50.092;15.804;2022-11-15T14:44:19;98757.72;;;8.12;100.00
70027;BME280;57506;50.092;15.804;2022-11-15T14:46:45;98747.72;;;8.05;100.00
70027;BME280;57506;50.092;15.804;2022-11-15T14:49:11;98726.53;;;7.96;100.00
70027;BME280;57506;50.092;15.804;2022-11-15T14:51:38;98761.19;;;8.12;100.00
70027;BME280;57506;50.092;15.804;2022-11-15T14:54:03;98735.31;;;8.04;100.00
70027;BME280;57506;50.092;15.804;2022-11-15T14:56:29;98742.88;;;8.16;100.00
70027;BME280;57506;50.092;15.804;2022-11-15T14:58:54;98727.78;;;8.15;100.00
70027;BME280;57506;50.092;15.804;2022-11-15T15:01:25;98732.88;;;8.24;100.00
70027;BME280;57506;50.092;15.804;2022-11-15T15:03:51;98734.97;;;8.29;100.00